sensor_id;sensor_type;location;lat;lon;timestamp;P1;durP1;ratioP1;P2;durP2;ratioP2
8411;SDS011;4243;49.296;11.348;2022-12-29T00:00:05;114.87;;;2.70;;
8411;SDS011;4243;49.296;11.348;2022-12-29T00:02:39;111.60;;;2.70;;
8411;SDS011;4243;49.296;11.348;2022-12-29T00:05:07;114.97;;;2.77;;
8411;SDS011;4243;49.296;11.348;2022-12-29T00:07:35;115.07;;;2.70;;
8411;SDS011;4243;49.296;11.348;2022-12-29T00:10:03;115.07;;;2.60;;
8411;SDS011;4243;49.296;11.348;2022-12-29T00:12:31;115.07;;;2.70;;
8411;SDS011;4243;49.296;11.348;2022-12-29T00:15:18;114.23;;;2.70;;
8411;SDS011;4243;49.296;11.348;2022-12-29T00:18:03;111.50;;;2.67;;
8411;SDS011;4243;49.296;11.348;2022-12-29T00:20:36;115.00;;;2.70;;
8411;SDS011;4243;49.296;11.348;2022-12-29T00:23:22;115.00;;;2.70;;
8411;SDS011;4243;49.296;11.348;2022-12-29T00:26:11;114.90;;;2.70;;
8411;SDS011;4243;49.296;11.348;2022-12-29T00:29:00;114.97;;;2.73;;
8411;SDS011;4243;49.296;11.348;2022-12-29T00:31:47;114.97;;;2.60;;
8411;SDS011;4243;49.296;11.348;2022-12-29T00:34:32;114.67;;;2.60;;
8411;SDS011;4243;49.296;11.348;2022-12-29T00:37:19;114.30;;;2.67;;
8411;SDS011;4243;49.296;11.348;2022-12-29T00:40:07;115.23;;;2.77;;
8411;SDS011;4243;49.296;11.348;2022-12-29T00:42:53;114.10;;;2.70;;
8411;SDS011;4243;49.296;11.348;2022-12-29T00:45:40;111.77;;;2.63;;
8411;SDS011;4243;49.296;11.348;2022-12-29T00:48:08;115.07;;;2.80;;
8411;SDS011;4243;49.296;11.348;2022-12-29T00:50:35;114.90;;;2.70;;
8411;SDS011;4243;49.296;11.348;2022-12-29T00:53:03;115.17;;;2.70;;
8411;SDS011;4243;49.296;11.348;2022-12-29T00:55:30;113.70;;;2.70;;
8411;SDS011;4243;49.296;11.348;2022-12-29T00:57:57;114.93;;;2.70;;
8411;SDS011;4243;49.296;11.348;2022-12-29T01:00:24;113.77;;;2.67;;
8411;SDS011;4243;49.296;11.348;2022-12-29T01:02:52;114.87;;;2.70;;
8411;SDS011;4243;49.296;11.348;2022-12-29T01:05:19;114.97;;;2.70;;
8411;SDS011;4243;49.296;11.348;2022-12-29T01:07:46;114.70;;;2.70;;
8411;SDS011;4243;49.296;11.348;2022-12-29T01:10:13;114.50;;;2.63;;
8411;SDS011;4243;49.296;11.348;2022-12-29T01:12:41;115.07;;;2.63;;
8411;SDS011;4243;49.296;11.348;2022-12-29T01:15:09;114.77;;;2.70;;
8411;SDS011;4243;49.296;11.348;2022-12-29T01:17:40;114.97;;;2.63;;
8411;SDS011;4243;49.296;11.348;2022-12-29T01:20:08;115.20;;;2.70;;
8411;SDS011;4243;49.296;11.348;2022-12-29T01:22:36;113.37;;;2.63;;
8411;SDS011;4243;49.296;11.348;2022-12-29T01:25:04;114.67;;;2.60;;
8411;SDS011;4243;49.296;11.348;2022-12-29T01:27:33;114.67;;;2.70;;
8411;SDS011;4243;49.296;11.348;2022-12-29T01:30:00;115.07;;;2.70;;
8411;SDS011;4243;49.296;11.348;2022-12-29T01:32:27;114.60;;;2.60;;
8411;SDS011;4243;49.296;11.348;2022-12-29T01:34:54;113.97;;;2.60;;
8411;SDS011;4243;49.296;11.348;2022-12-29T01:37:21;114.97;;;2.60;;
8411;SDS011;4243;49.296;11.348;2022-12-29T01:39:48;114.87;;;2.60;;
8411;SDS011;4243;49.296;11.348;2022-12-29T01:42:16;114.97;;;2.67;;
8411;SDS011;4243;49.296;11.348;2022-12-29T01:44:47;115.13;;;2.63;;
8411;SDS011;4243;49.296;11.348;2022-12-29T01:50:28;114.37;;;2.67;;
8411;SDS011;4243;49.296;11.348;2022-12-29T01:53:11;113.77;;;2.60;;
8411;SDS011;4243;49.296;11.348;2022-12-29T01:55:55;115.20;;;2.63;;
8411;SDS011;4243;49.296;11.348;2022-12-29T01:58:32;114.30;;;2.60;;
8411;SDS011;4243;49.296;11.348;2022-12-29T02:01:06;114.87;;;2.60;;
8411;SDS011;4243;49.296;11.348;2022-12-29T02:03:34;114.77;;;2.60;;
8411;SDS011;4243;49.296;11.348;2022-12-29T02:09:09;114.97;;;2.70;;
8411;SDS011;4243;49.296;11.348;2022-12-29T02:11:36;113.67;;;2.70;;
8411;SDS011;4243;49.296;11.348;2022-12-29T02:14:09;113.83;;;2.60;;
8411;SDS011;4243;49.296;11.348;2022-12-29T02:16:42;114.80;;;2.67;;
8411;SDS011;4243;49.296;11.348;2022-12-29T02:23:25;114.87;;;2.70;;
8411;SDS011;4243;49.296;11.348;2022-12-29T02:30:03;114.97;;;2.60;;
8411;SDS011;4243;49.296;11.348;2022-12-29T02:36:06;114.20;;;2.60;;
8411;SDS011;4243;49.296;11.348;2022-12-29T02:39:32;115.00;;;2.60;;
8411;SDS011;4243;49.296;11.348;2022-12-29T02:45:59;114.77;;;2.60;;
8411;SDS011;4243;49.296;11.348;2022-12-29T02:51:28;115.37;;;2.67;;
8411;SDS011;4243;49.296;11.348;2022-12-29T02:54:06;114.87;;;2.70;;
8411;SDS011;4243;49.296;11.348;2022-12-29T02:56:52;115.27;;;2.60;;
8411;SDS011;4243;49.296;11.348;2022-12-29T02:59:20;115.57;;;2.70;;
8411;SDS011;4243;49.296;11.348;2022-12-29T03:05:04;115.27;;;2.70;;
8411;SDS011;4243;49.296;11.348;2022-12-29T03:08:22;114.43;;;2.70;;
8411;SDS011;4243;49.296;11.348;2022-12-29T03:11:20;115.10;;;2.70;;
8411;SDS011;4243;49.296;11.348;2022-12-29T03:14:30;115.03;;;2.60;;
8411;SDS011;4243;49.296;11.348;2022-12-29T03:17:25;114.50;;;2.70;;
8411;SDS011;4243;49.296;11.348;2022-12-29T03:20:07;114.87;;;2.63;;
8411;SDS011;4243;49.296;11.348;2022-12-29T03:22:46;115.07;;;2.67;;
8411;SDS011;4243;49.296;11.348;2022-12-29T03:25:22;115.73;;;2.70;;
8411;SDS011;4243;49.296;11.348;2022-12-29T03:28:07;115.67;;;2.80;;
8411;SDS011;4243;49.296;11.348;2022-12-29T03:31:06;115.20;;;2.63;;
8411;SDS011;4243;49.296;11.348;2022-12-29T03:33:38;115.40;;;2.70;;
8411;SDS011;4243;49.296;11.348;2022-12-29T03:36:09;114.30;;;2.70;;
8411;SDS011;4243;49.296;11.348;2022-12-29T03:39:02;115.20;;;2.67;;
8411;SDS011;4243;49.296;11.348;2022-12-29T03:41:38;115.10;;;2.70;;
8411;SDS011;4243;49.296;11.348;2022-12-29T03:44:11;114.77;;;2.70;;
8411;SDS011;4243;49.296;11.348;2022-12-29T03:46:39;115.30;;;2.70;;
8411;SDS011;4243;49.296;11.348;2022-12-29T03:49:07;115.00;;;2.67;;
8411;SDS011;4243;49.296;11.348;2022-12-29T03:51:35;115.03;;;2.60;;
8411;SDS011;4243;49.296;11.348;2022-12-29T03:54:04;115.37;;;2.73;;
8411;SDS011;4243;49.296;11.348;2022-12-29T03:56:31;116.10;;;2.77;;
8411;SDS011;4243;49.296;11.348;2022-12-29T03:59:00;115.53;;;2.67;;
8411;SDS011;4243;49.296;11.348;2022-12-29T04:01:36;115.20;;;2.70;;
8411;SDS011;4243;49.296;11.348;2022-12-29T04:04:03;115.40;;;2.70;;
8411;SDS011;4243;49.296;11.348;2022-12-29T04:06:30;115.20;;;2.70;;
8411;SDS011;4243;49.296;11.348;2022-12-29T04:09:02;114.77;;;2.77;;
8411;SDS011;4243;49.296;11.348;2022-12-29T04:11:33;115.10;;;2.70;;
8411;SDS011;4243;49.296;11.348;2022-12-29T04:14:02;114.37;;;2.67;;
8411;SDS011;4243;49.296;11.348;2022-12-29T04:16:32;115.30;;;2.63;;
8411;SDS011;4243;49.296;11.348;2022-12-29T04:19:03;115.13;;;2.77;;
8411;SDS011;4243;49.296;11.348;2022-12-29T04:21:34;115.20;;;2.67;;
8411;SDS011;4243;49.296;11.348;2022-12-29T04:24:01;114.60;;;2.70;;
8411;SDS011;4243;49.296;11.348;2022-12-29T04:26:31;115.83;;;2.67;;
8411;SDS011;4243;49.296;11.348;2022-12-29T04:29:13;115.47;;;2.70;;
8411;SDS011;4243;49.296;11.348;2022-12-29T04:31:58;115.33;;;2.70;;
8411;SDS011;4243;49.296;11.348;2022-12-29T04:34:28;115.47;;;2.70;;
8411;SDS011;4243;49.296;11.348;2022-12-29T04:36:55;112.37;;;2.70;;
8411;SDS011;4243;49.296;11.348;2022-12-29T04:39:22;115.53;;;2.63;;
8411;SDS011;4243;49.296;11.348;2022-12-29T04:41:49;115.40;;;2.70;;
8411;SDS011;4243;49.296;11.348;2022-12-29T04:44:19;115.67;;;2.70;;
8411;SDS011;4243;49.296;11.348;2022-12-29T04:47:03;114.80;;;2.73;;
8411;SDS011;4243;49.296;11.348;2022-12-29T04:49:49;115.83;;;2.63;;
8411;SDS011;4243;49.296;11.348;2022-12-29T04:52:51;114.17;;;2.70;;
8411;SDS011;4243;49.296;11.348;2022-12-29T04:55:19;115.00;;;2.67;;
8411;SDS011;4243;49.296;11.348;2022-12-29T04:57:46;115.37;;;2.70;;
8411;SDS011;4243;49.296;11.348;2022-12-29T05:00:17;115.40;;;2.70;;
8411;SDS011;4243;49.296;11.348;2022-12-29T05:02:46;113.50;;;2.60;;
8411;SDS011;4243;49.296;11.348;2022-12-29T05:05:14;115.77;;;2.70;;
8411;SDS011;4243;49.296;11.348;2022-12-29T05:07:46;116.07;;;2.63;;
8411;SDS011;4243;49.296;11.348;2022-12-29T05:10:13;115.70;;;2.80;;
8411;SDS011;4243;49.296;11.348;2022-12-29T05:12:41;114.57;;;2.70;;
8411;SDS011;4243;49.296;11.348;2022-12-29T05:15:08;114.57;;;2.70;;
8411;SDS011;4243;49.296;11.348;2022-12-29T05:17:37;115.40;;;2.70;;
8411;SDS011;4243;49.296;11.348;2022-12-29T05:20:06;115.77;;;2.70;;
8411;SDS011;4243;49.296;11.348;2022-12-29T05:22:35;116.33;;;2.90;;
8411;SDS011;4243;49.296;11.348;2022-12-29T05:25:04;115.20;;;2.67;;
8411;SDS011;4243;49.296;11.348;2022-12-29T05:27:39;115.10;;;2.70;;
8411;SDS011;4243;49.296;11.348;2022-12-29T05:30:36;115.30;;;2.67;;
8411;SDS011;4243;49.296;11.348;2022-12-29T05:33:04;114.57;;;2.70;;
8411;SDS011;4243;49.296;11.348;2022-12-29T05:35:33;115.87;;;2.63;;
8411;SDS011;4243;49.296;11.348;2022-12-29T05:38:00;115.40;;;2.60;;
8411;SDS011;4243;49.296;11.348;2022-12-29T05:40:28;115.30;;;2.70;;
8411;SDS011;4243;49.296;11.348;2022-12-29T05:43:00;115.47;;;2.60;;
8411;SDS011;4243;49.296;11.348;2022-12-29T05:45:47;115.47;;;2.60;;
8411;SDS011;4243;49.296;11.348;2022-12-29T05:48:42;115.67;;;2.70;;
8411;SDS011;4243;49.296;11.348;2022-12-29T05:51:23;114.30;;;2.67;;
8411;SDS011;4243;49.296;11.348;2022-12-29T05:53:52;113.90;;;2.70;;
8411;SDS011;4243;49.296;11.348;2022-12-29T05:56:21;114.03;;;2.70;;
8411;SDS011;4243;49.296;11.348;2022-12-29T05:58:56;112.40;;;2.67;;
8411;SDS011;4243;49.296;11.348;2022-12-29T06:01:23;115.10;;;2.67;;
8411;SDS011;4243;49.296;11.348;2022-12-29T06:03:50;115.10;;;2.67;;
8411;SDS011;4243;49.296;11.348;2022-12-29T06:06:19;115.83;;;2.70;;
8411;SDS011;4243;49.296;11.348;2022-12-29T06:08:46;115.00;;;2.70;;
8411;SDS011;4243;49.296;11.348;2022-12-29T06:11:14;115.07;;;2.70;;
8411;SDS011;4243;49.296;11.348;2022-12-29T06:13:48;115.43;;;2.80;;
8411;SDS011;4243;49.296;11.348;2022-12-29T06:16:15;114.50;;;2.80;;
8411;SDS011;4243;49.296;11.348;2022-12-29T06:18:43;111.77;;;2.70;;
8411;SDS011;4243;49.296;11.348;2022-12-29T06:21:10;115.17;;;2.73;;
8411;SDS011;4243;49.296;11.348;2022-12-29T06:23:38;114.10;;;2.70;;
8411;SDS011;4243;49.296;11.348;2022-12-29T06:26:05;114.60;;;2.73;;
8411;SDS011;4243;49.296;11.348;2022-12-29T06:28:32;114.50;;;2.70;;
8411;SDS011;4243;49.296;11.348;2022-12-29T06:31:00;113.67;;;2.73;;
8411;SDS011;4243;49.296;11.348;2022-12-29T06:33:29;113.50;;;2.70;;
8411;SDS011;4243;49.296;11.348;2022-12-29T06:35:56;113.27;;;2.77;;
8411;SDS011;4243;49.296;11.348;2022-12-29T06:38:23;114.30;;;2.67;;
8411;SDS011;4243;49.296;11.348;2022-12-29T06:40:51;114.97;;;2.73;;
8411;SDS011;4243;49.296;11.348;2022-12-29T06:43:18;114.70;;;2.73;;
8411;SDS011;4243;49.296;11.348;2022-12-29T06:46:02;113.17;;;2.77;;
8411;SDS011;4243;49.296;11.348;2022-12-29T06:48:31;115.20;;;2.80;;
8411;SDS011;4243;49.296;11.348;2022-12-29T06:50:58;114.30;;;2.70;;
8411;SDS011;4243;49.296;11.348;2022-12-29T06:53:26;113.50;;;2.73;;
8411;SDS011;4243;49.296;11.348;2022-12-29T06:55:53;114.97;;;2.80;;
8411;SDS011;4243;49.296;11.348;2022-12-29T06:58:20;114.00;;;2.80;;
8411;SDS011;4243;49.296;11.348;2022-12-29T07:00:47;111.37;;;2.83;;
8411;SDS011;4243;49.296;11.348;2022-12-29T07:03:14;111.47;;;2.70;;
8411;SDS011;4243;49.296;11.348;2022-12-29T07:05:42;114.57;;;2.80;;
8411;SDS011;4243;49.296;11.348;2022-12-29T07:08:09;115.07;;;2.80;;
8411;SDS011;4243;49.296;11.348;2022-12-29T07:10:36;114.33;;;2.80;;
8411;SDS011;4243;49.296;11.348;2022-12-29T07:13:03;114.67;;;2.70;;
8411;SDS011;4243;49.296;11.348;2022-12-29T07:15:31;114.67;;;2.77;;
8411;SDS011;4243;49.296;11.348;2022-12-29T07:17:57;114.53;;;2.77;;
8411;SDS011;4243;49.296;11.348;2022-12-29T07:20:25;113.60;;;2.87;;
8411;SDS011;4243;49.296;11.348;2022-12-29T07:22:52;113.97;;;2.77;;
8411;SDS011;4243;49.296;11.348;2022-12-29T07:25:20;114.67;;;2.80;;
8411;SDS011;4243;49.296;11.348;2022-12-29T07:27:47;114.20;;;2.80;;
8411;SDS011;4243;49.296;11.348;2022-12-29T07:30:14;114.10;;;2.80;;
8411;SDS011;4243;49.296;11.348;2022-12-29T07:32:42;114.57;;;2.80;;
8411;SDS011;4243;49.296;11.348;2022-12-29T07:35:09;114.07;;;2.83;;
8411;SDS011;4243;49.296;11.348;2022-12-29T07:37:37;114.10;;;2.80;;
8411;SDS011;4243;49.296;11.348;2022-12-29T07:40:04;114.37;;;2.80;;
8411;SDS011;4243;49.296;11.348;2022-12-29T07:42:32;114.20;;;2.77;;
8411;SDS011;4243;49.296;11.348;2022-12-29T07:44:59;115.17;;;2.67;;
8411;SDS011;4243;49.296;11.348;2022-12-29T07:47:32;114.47;;;2.73;;
8411;SDS011;4243;49.296;11.348;2022-12-29T07:49:59;115.07;;;2.80;;
8411;SDS011;4243;49.296;11.348;2022-12-29T07:52:27;114.50;;;2.70;;
8411;SDS011;4243;49.296;11.348;2022-12-29T07:54:54;114.77;;;2.70;;
8411;SDS011;4243;49.296;11.348;2022-12-29T07:57:21;115.13;;;2.70;;
8411;SDS011;4243;49.296;11.348;2022-12-29T07:59:56;115.17;;;2.70;;
8411;SDS011;4243;49.296;11.348;2022-12-29T08:02:24;114.13;;;2.70;;
8411;SDS011;4243;49.296;11.348;2022-12-29T08:04:53;115.20;;;2.70;;
8411;SDS011;4243;49.296;11.348;2022-12-29T08:07:20;114.60;;;2.70;;
8411;SDS011;4243;49.296;11.348;2022-12-29T08:09:47;113.70;;;2.70;;
8411;SDS011;4243;49.296;11.348;2022-12-29T08:12:14;114.97;;;2.70;;
8411;SDS011;4243;49.296;11.348;2022-12-29T08:14:41;111.97;;;2.63;;
8411;SDS011;4243;49.296;11.348;2022-12-29T08:17:08;113.87;;;2.63;;
8411;SDS011;4243;49.296;11.348;2022-12-29T08:19:36;114.47;;;2.67;;
8411;SDS011;4243;49.296;11.348;2022-12-29T08:22:04;115.37;;;2.70;;
8411;SDS011;4243;49.296;11.348;2022-12-29T08:24:31;115.50;;;2.60;;
8411;SDS011;4243;49.296;11.348;2022-12-29T08:26:58;115.00;;;2.63;;
8411;SDS011;4243;49.296;11.348;2022-12-29T08:29:38;115.37;;;2.70;;
8411;SDS011;4243;49.296;11.348;2022-12-29T08:32:05;114.90;;;2.70;;
8411;SDS011;4243;49.296;11.348;2022-12-29T08:34:33;115.97;;;2.70;;
8411;SDS011;4243;49.296;11.348;2022-12-29T08:37:00;115.33;;;2.73;;
8411;SDS011;4243;49.296;11.348;2022-12-29T08:39:27;114.83;;;2.80;;
8411;SDS011;4243;49.296;11.348;2022-12-29T08:41:54;115.30;;;2.70;;
8411;SDS011;4243;49.296;11.348;2022-12-29T08:44:22;112.97;;;2.77;;
8411;SDS011;4243;49.296;11.348;2022-12-29T08:46:49;115.20;;;2.60;;
8411;SDS011;4243;49.296;11.348;2022-12-29T08:49:16;115.87;;;2.70;;
8411;SDS011;4243;49.296;11.348;2022-12-29T08:51:43;115.70;;;2.63;;
8411;SDS011;4243;49.296;11.348;2022-12-29T08:54:10;115.90;;;2.70;;
8411;SDS011;4243;49.296;11.348;2022-12-29T08:56:38;116.03;;;2.70;;
8411;SDS011;4243;49.296;11.348;2022-12-29T08:59:06;115.87;;;2.63;;
8411;SDS011;4243;49.296;11.348;2022-12-29T09:03:54;115.80;;;2.70;;
8411;SDS011;4243;49.296;11.348;2022-12-29T09:06:42;115.70;;;2.77;;
8411;SDS011;4243;49.296;11.348;2022-12-29T09:09:11;115.67;;;2.63;;
8411;SDS011;4243;49.296;11.348;2022-12-29T09:11:38;116.47;;;2.70;;
8411;SDS011;4243;49.296;11.348;2022-12-29T09:14:06;115.67;;;2.73;;
8411;SDS011;4243;49.296;11.348;2022-12-29T09:16:34;115.27;;;2.70;;
8411;SDS011;4243;49.296;11.348;2022-12-29T09:19:03;115.80;;;2.60;;
8411;SDS011;4243;49.296;11.348;2022-12-29T09:21:30;116.10;;;2.70;;
8411;SDS011;4243;49.296;11.348;2022-12-29T09:23:58;114.67;;;2.63;;
8411;SDS011;4243;49.296;11.348;2022-12-29T09:26:25;116.17;;;2.60;;
8411;SDS011;4243;49.296;11.348;2022-12-29T09:28:52;115.33;;;2.63;;
8411;SDS011;4243;49.296;11.348;2022-12-29T09:31:19;115.77;;;2.60;;
8411;SDS011;4243;49.296;11.348;2022-12-29T09:33:47;116.77;;;2.80;;
8411;SDS011;4243;49.296;11.348;2022-12-29T09:36:14;116.03;;;2.63;;
8411;SDS011;4243;49.296;11.348;2022-12-29T09:38:41;115.80;;;2.70;;
8411;SDS011;4243;49.296;11.348;2022-12-29T09:41:18;116.80;;;2.70;;
8411;SDS011;4243;49.296;11.348;2022-12-29T09:44:03;116.20;;;2.70;;
8411;SDS011;4243;49.296;11.348;2022-12-29T09:46:48;116.07;;;2.60;;
8411;SDS011;4243;49.296;11.348;2022-12-29T09:49:22;116.87;;;2.63;;
8411;SDS011;4243;49.296;11.348;2022-12-29T09:52:00;114.57;;;2.70;;
8411;SDS011;4243;49.296;11.348;2022-12-29T09:54:42;116.03;;;2.60;;
8411;SDS011;4243;49.296;11.348;2022-12-29T09:57:41;116.77;;;2.60;;
8411;SDS011;4243;49.296;11.348;2022-12-29T10:00:21;116.40;;;2.57;;
8411;SDS011;4243;49.296;11.348;2022-12-29T10:03:27;116.77;;;2.67;;
8411;SDS011;4243;49.296;11.348;2022-12-29T10:06:22;116.30;;;2.60;;
8411;SDS011;4243;49.296;11.348;2022-12-29T10:09:42;116.20;;;2.60;;
8411;SDS011;4243;49.296;11.348;2022-12-29T10:12:16;117.10;;;2.60;;
8411;SDS011;4243;49.296;11.348;2022-12-29T10:15:20;116.10;;;2.53;;
8411;SDS011;4243;49.296;11.348;2022-12-29T10:24:36;116.60;;;2.40;;
8411;SDS011;4243;49.296;11.348;2022-12-29T10:27:09;116.13;;;2.50;;
8411;SDS011;4243;49.296;11.348;2022-12-29T10:29:43;116.70;;;2.60;;
8411;SDS011;4243;49.296;11.348;2022-12-29T10:35:03;115.47;;;2.60;;
8411;SDS011;4243;49.296;11.348;2022-12-29T10:40:46;115.87;;;2.57;;
8411;SDS011;4243;49.296;11.348;2022-12-29T10:43:42;115.67;;;2.60;;
8411;SDS011;4243;49.296;11.348;2022-12-29T10:46:23;116.73;;;2.60;;
8411;SDS011;4243;49.296;11.348;2022-12-29T10:48:56;116.67;;;2.60;;
8411;SDS011;4243;49.296;11.348;2022-12-29T10:51:30;116.27;;;2.57;;
8411;SDS011;4243;49.296;11.348;2022-12-29T10:54:06;117.10;;;2.63;;
8411;SDS011;4243;49.296;11.348;2022-12-29T10:57:33;116.37;;;2.60;;
8411;SDS011;4243;49.296;11.348;2022-12-29T11:00:12;115.90;;;2.50;;
8411;SDS011;4243;49.296;11.348;2022-12-29T11:02:54;117.33;;;2.63;;
8411;SDS011;4243;49.296;11.348;2022-12-29T11:06:01;117.27;;;2.60;;
8411;SDS011;4243;49.296;11.348;2022-12-29T11:08:57;116.70;;;2.50;;
8411;SDS011;4243;49.296;11.348;2022-12-29T11:11:36;117.17;;;2.43;;
8411;SDS011;4243;49.296;11.348;2022-12-29T11:14:14;117.57;;;2.50;;
8411;SDS011;4243;49.296;11.348;2022-12-29T11:16:59;117.20;;;2.50;;
8411;SDS011;4243;49.296;11.348;2022-12-29T11:19:31;116.90;;;2.53;;
8411;SDS011;4243;49.296;11.348;2022-12-29T11:22:23;117.30;;;2.50;;
8411;SDS011;4243;49.296;11.348;2022-12-29T11:24:54;116.83;;;2.53;;
8411;SDS011;4243;49.296;11.348;2022-12-29T11:27:37;116.13;;;2.50;;
8411;SDS011;4243;49.296;11.348;2022-12-29T11:30:12;117.67;;;2.50;;
8411;SDS011;4243;49.296;11.348;2022-12-29T11:32:58;117.20;;;2.50;;
8411;SDS011;4243;49.296;11.348;2022-12-29T11:35:33;117.40;;;2.50;;
8411;SDS011;4243;49.296;11.348;2022-12-29T11:38:22;117.37;;;2.53;;
8411;SDS011;4243;49.296;11.348;2022-12-29T11:40:59;117.50;;;2.60;;
8411;SDS011;4243;49.296;11.348;2022-12-29T11:43:33;117.00;;;2.53;;
8411;SDS011;4243;49.296;11.348;2022-12-29T11:46:04;117.27;;;2.67;;
8411;SDS011;4243;49.296;11.348;2022-12-29T11:48:39;117.77;;;2.50;;
8411;SDS011;4243;49.296;11.348;2022-12-29T11:51:08;116.57;;;2.70;;
8411;SDS011;4243;49.296;11.348;2022-12-29T11:56:14;117.30;;;2.60;;
8411;SDS011;4243;49.296;11.348;2022-12-29T11:58:48;115.87;;;2.57;;
8411;SDS011;4243;49.296;11.348;2022-12-29T12:01:17;115.40;;;2.60;;
8411;SDS011;4243;49.296;11.348;2022-12-29T12:04:02;116.10;;;2.57;;
8411;SDS011;4243;49.296;11.348;2022-12-29T12:09:42;117.50;;;2.70;;
8411;SDS011;4243;49.296;11.348;2022-12-29T12:12:35;116.47;;;2.67;;
8411;SDS011;4243;49.296;11.348;2022-12-29T12:15:17;116.20;;;2.70;;
8411;SDS011;4243;49.296;11.348;2022-12-29T12:30:01;117.20;;;2.50;;
8411;SDS011;4243;49.296;11.348;2022-12-29T12:33:30;116.73;;;2.60;;
8411;SDS011;4243;49.296;11.348;2022-12-29T12:41:52;118.07;;;2.67;;
8411;SDS011;4243;49.296;11.348;2022-12-29T12:45:04;116.07;;;2.63;;
8411;SDS011;4243;49.296;11.348;2022-12-29T12:48:27;116.13;;;2.63;;
8411;SDS011;4243;49.296;11.348;2022-12-29T12:51:50;117.30;;;2.60;;
8411;SDS011;4243;49.296;11.348;2022-12-29T12:58:55;117.10;;;2.60;;
8411;SDS011;4243;49.296;11.348;2022-12-29T13:01:59;116.07;;;2.60;;
8411;SDS011;4243;49.296;11.348;2022-12-29T13:08:11;116.83;;;2.70;;
8411;SDS011;4243;49.296;11.348;2022-12-29T13:23:09;117.57;;;2.60;;
8411;SDS011;4243;49.296;11.348;2022-12-29T13:29:21;117.23;;;2.57;;
8411;SDS011;4243;49.296;11.348;2022-12-29T13:41:03;117.57;;;2.60;;
8411;SDS011;4243;49.296;11.348;2022-12-29T13:43:45;115.40;;;2.50;;
8411;SDS011;4243;49.296;11.348;2022-12-29T13:46:21;117.67;;;2.47;;
8411;SDS011;4243;49.296;11.348;2022-12-29T13:49:17;117.13;;;2.40;;
8411;SDS011;4243;49.296;11.348;2022-12-29T13:51:52;116.80;;;2.50;;
8411;SDS011;4243;49.296;11.348;2022-12-29T13:54:45;115.57;;;2.50;;
8411;SDS011;4243;49.296;11.348;2022-12-29T14:04:20;117.47;;;2.50;;
8411;SDS011;4243;49.296;11.348;2022-12-29T14:07:05;117.43;;;2.57;;
8411;SDS011;4243;49.296;11.348;2022-12-29T14:09:45;116.77;;;2.50;;
8411;SDS011;4243;49.296;11.348;2022-12-29T14:15:06;116.60;;;2.50;;
8411;SDS011;4243;49.296;11.348;2022-12-29T14:18:11;117.47;;;2.57;;
8411;SDS011;4243;49.296;11.348;2022-12-29T14:23:41;116.90;;;2.57;;
8411;SDS011;4243;49.296;11.348;2022-12-29T14:26:15;117.47;;;2.50;;
8411;SDS011;4243;49.296;11.348;2022-12-29T14:29:15;117.27;;;2.50;;
8411;SDS011;4243;49.296;11.348;2022-12-29T14:31:52;116.90;;;2.60;;
8411;SDS011;4243;49.296;11.348;2022-12-29T14:37:02;117.10;;;2.60;;
8411;SDS011;4243;49.296;11.348;2022-12-29T14:39:37;117.17;;;2.57;;
8411;SDS011;4243;49.296;11.348;2022-12-29T14:42:12;116.90;;;2.57;;
8411;SDS011;4243;49.296;11.348;2022-12-29T14:47:22;115.47;;;2.57;;
8411;SDS011;4243;49.296;11.348;2022-12-29T14:50:07;116.60;;;2.60;;
8411;SDS011;4243;49.296;11.348;2022-12-29T14:52:47;117.00;;;2.50;;
8411;SDS011;4243;49.296;11.348;2022-12-29T14:55:44;117.07;;;2.50;;
8411;SDS011;4243;49.296;11.348;2022-12-29T14:58:17;117.47;;;2.53;;
8411;SDS011;4243;49.296;11.348;2022-12-29T15:01:17;115.00;;;2.53;;
8411;SDS011;4243;49.296;11.348;2022-12-29T15:04:23;116.23;;;2.50;;
8411;SDS011;4243;49.296;11.348;2022-12-29T15:06:57;116.20;;;2.40;;
8411;SDS011;4243;49.296;11.348;2022-12-29T15:09:31;116.07;;;2.60;;
8411;SDS011;4243;49.296;11.348;2022-12-29T15:17:54;116.30;;;2.53;;
8411;SDS011;4243;49.296;11.348;2022-12-29T15:20:29;117.17;;;2.50;;
8411;SDS011;4243;49.296;11.348;2022-12-29T15:22:58;115.50;;;2.53;;
8411;SDS011;4243;49.296;11.348;2022-12-29T15:25:36;117.17;;;2.60;;
8411;SDS011;4243;49.296;11.348;2022-12-29T15:28:24;116.13;;;2.53;;
8411;SDS011;4243;49.296;11.348;2022-12-29T15:30:54;116.40;;;2.50;;
8411;SDS011;4243;49.296;11.348;2022-12-29T15:33:30;116.70;;;2.40;;
8411;SDS011;4243;49.296;11.348;2022-12-29T15:36:10;117.37;;;2.47;;
8411;SDS011;4243;49.296;11.348;2022-12-29T15:38:50;116.70;;;2.50;;
8411;SDS011;4243;49.296;11.348;2022-12-29T15:44:29;116.60;;;2.40;;
8411;SDS011;4243;49.296;11.348;2022-12-29T15:47:15;116.00;;;2.47;;
8411;SDS011;4243;49.296;11.348;2022-12-29T15:49:48;115.87;;;2.50;;
8411;SDS011;4243;49.296;11.348;2022-12-29T15:52:20;117.13;;;2.50;;
8411;SDS011;4243;49.296;11.348;2022-12-29T15:54:50;116.30;;;2.50;;
8411;SDS011;4243;49.296;11.348;2022-12-29T15:57:21;116.00;;;2.50;;
8411;SDS011;4243;49.296;11.348;2022-12-29T15:59:54;116.87;;;2.57;;
8411;SDS011;4243;49.296;11.348;2022-12-29T16:02:22;116.17;;;2.50;;
8411;SDS011;4243;49.296;11.348;2022-12-29T16:04:51;117.03;;;2.63;;
8411;SDS011;4243;49.296;11.348;2022-12-29T16:07:39;115.87;;;2.50;;
8411;SDS011;4243;49.296;11.348;2022-12-29T16:10:37;116.20;;;2.60;;
8411;SDS011;4243;49.296;11.348;2022-12-29T16:13:17;115.90;;;2.57;;
8411;SDS011;4243;49.296;11.348;2022-12-29T16:16:18;116.30;;;2.50;;
8411;SDS011;4243;49.296;11.348;2022-12-29T16:18:53;116.70;;;2.60;;
8411;SDS011;4243;49.296;11.348;2022-12-29T16:21:31;116.07;;;2.50;;
8411;SDS011;4243;49.296;11.348;2022-12-29T16:24:02;116.77;;;2.60;;
8411;SDS011;4243;49.296;11.348;2022-12-29T16:26:38;116.83;;;2.60;;
8411;SDS011;4243;49.296;11.348;2022-12-29T16:29:06;116.40;;;2.60;;
8411;SDS011;4243;49.296;11.348;2022-12-29T16:31:35;116.20;;;2.50;;
8411;SDS011;4243;49.296;11.348;2022-12-29T16:34:32;117.10;;;2.60;;
8411;SDS011;4243;49.296;11.348;2022-12-29T16:37:26;115.70;;;2.70;;
8411;SDS011;4243;49.296;11.348;2022-12-29T16:42:47;115.27;;;2.60;;
8411;SDS011;4243;49.296;11.348;2022-12-29T16:48:09;114.80;;;2.60;;
8411;SDS011;4243;49.296;11.348;2022-12-29T16:50:45;115.07;;;2.57;;
8411;SDS011;4243;49.296;11.348;2022-12-29T16:55:53;117.03;;;2.60;;
8411;SDS011;4243;49.296;11.348;2022-12-29T16:58:27;115.57;;;2.70;;
8411;SDS011;4243;49.296;11.348;2022-12-29T17:00:57;116.20;;;2.53;;
8411;SDS011;4243;49.296;11.348;2022-12-29T17:03:33;116.53;;;2.60;;
8411;SDS011;4243;49.296;11.348;2022-12-29T17:06:12;115.97;;;2.50;;
8411;SDS011;4243;49.296;11.348;2022-12-29T17:08:44;115.70;;;2.63;;
8411;SDS011;4243;49.296;11.348;2022-12-29T17:11:20;116.47;;;2.53;;
8411;SDS011;4243;49.296;11.348;2022-12-29T17:14:22;116.40;;;2.60;;
8411;SDS011;4243;49.296;11.348;2022-12-29T17:17:15;115.37;;;2.50;;
8411;SDS011;4243;49.296;11.348;2022-12-29T17:20:03;115.53;;;2.50;;
8411;SDS011;4243;49.296;11.348;2022-12-29T17:22:56;116.40;;;2.60;;
8411;SDS011;4243;49.296;11.348;2022-12-29T17:25:26;116.37;;;2.60;;
8411;SDS011;4243;49.296;11.348;2022-12-29T17:28:00;116.07;;;2.53;;
8411;SDS011;4243;49.296;11.348;2022-12-29T17:30:48;116.57;;;2.57;;
8411;SDS011;4243;49.296;11.348;2022-12-29T17:33:23;116.27;;;2.60;;
8411;SDS011;4243;49.296;11.348;2022-12-29T17:35:51;116.50;;;2.50;;
8411;SDS011;4243;49.296;11.348;2022-12-29T17:38:22;116.23;;;2.57;;